This is the latest recevied weather packets stored in our database for station/object DL1SEW-6. If no packets are shown the sender has not sent any weather packets the latest 10 day(s).
| Time | Temp. | Humidity | Pressure | Rain* | Wind** | Luminosity | Snow |
|---|---|---|---|---|---|---|---|
| 1777705795 | 14.44° C | 57% | 1022.2 hPa | 0 mm | - | 420 W/m² | - |
| 1777704895 | 13.89° C | 55% | 1022.1 hPa | 0 mm | - | 425 W/m² | - |
| 1777703994 | 13.33° C | 57% | 1022.1 hPa | 0 mm | - | 427 W/m² | - |
| 1777703095 | 12.22° C | 59% | 1022 hPa | 0 mm | - | 386 W/m² | - |
| 1777702194 | 11.67° C | 59% | 1021.9 hPa | 0 mm | - | 342 W/m² | - |
| 1777701294 | 10° C | 62% | 1021.7 hPa | 0 mm | - | 284 W/m² | - |
| 1777700399 | 8.33° C | 67% | 1021.6 hPa | 0 mm | - | 231 W/m² | - |
| 1777699500 | 7.22° C | 70% | 1021.4 hPa | 0 mm | - | 177 W/m² | - |
| 1777698598 | 6.11° C | 74% | 1021.1 hPa | 0 mm | - | 135 W/m² | - |
| 1777697700 | 5° C | 76% | 1021 hPa | 0 mm | - | 87 W/m² | - |
| 1777696800 | 4.44° C | 74% | 1021.1 hPa | 0 mm | - | 50 W/m² | - |
| 1777695898 | 4.44° C | 74% | 1021.1 hPa | 0 mm | - | 12 W/m² | - |
| 1777694998 | 5° C | 72% | 1021 hPa | 0 mm | - | 7 W/m² | - |
| 1777694098 | 5.56° C | 70% | 1021.2 hPa | 0 mm | - | 0 W/m² | - |
| 1777693197 | 5.56° C | 69% | 1021.1 hPa | 0 mm | - | 0 W/m² | - |
| 1777692297 | 6.11° C | 69% | 1021.2 hPa | 0 mm | - | 0 W/m² | - |
| 1777691397 | 6.67° C | 67% | 1021.4 hPa | 0 mm | - | 0 W/m² | - |
| 1777690497 | 6.67° C | 67% | 1021.6 hPa | 0 mm | - | 0 W/m² | - |
| 1777689599 | 7.22° C | 64% | 1021.6 hPa | 0 mm | - | 0 W/m² | - |
| 1777688698 | 7.78° C | 64% | 1021.5 hPa | 0 mm | - | 0 W/m² | - |
| 1777687796 | 7.78° C | 64% | 1021.5 hPa | 0 mm | - | 0 W/m² | - |
| 1777686896 | 7.78° C | 62% | 1021.9 hPa | 0 mm | - | 0 W/m² | - |
| 1777685996 | 8.33° C | 61% | 1022.1 hPa | 0 mm | - | 0 W/m² | - |
| 1777685098 | 9.44° C | 58% | 1022.3 hPa | 0 mm | - | 0 W/m² | - |
| 1777684195 | 10° C | 56% | 1022.5 hPa | 0 mm | - | 0 W/m² | - |
* Rain latest hour (hover to see other rain measurements)
** Current wind speed in m/s (hover to see current wind gust speed)